createdAt,value
2018-11-12T00:00:20.680Z,100.00
2018-11-12T00:02:51.169Z,100.00
2018-11-12T00:05:20.246Z,100.00
2018-11-12T00:07:49.188Z,100.00
2018-11-12T00:10:18.131Z,100.00
2018-11-12T00:12:47.264Z,100.00
2018-11-12T00:15:16.212Z,100.00
2018-11-12T00:17:45.247Z,100.00
2018-11-12T00:20:15.399Z,100.00
2018-11-12T00:22:44.924Z,100.00
2018-11-12T00:25:13.925Z,100.00
2018-11-12T00:27:43.139Z,100.00
2018-11-12T00:30:14.428Z,100.00
2018-11-12T00:32:44.184Z,100.00
2018-11-12T00:35:13.238Z,100.00
2018-11-12T00:37:43.177Z,100.00
2018-11-12T00:40:13.905Z,100.00
2018-11-12T00:42:43.420Z,100.00
2018-11-12T00:45:12.758Z,100.00
2018-11-12T00:47:41.974Z,100.00
2018-11-12T00:50:12.291Z,100.00
2018-11-12T00:52:41.273Z,100.00
2018-11-12T00:55:12.067Z,100.00
2018-11-12T00:57:41.551Z,100.00
2018-11-12T01:00:13.860Z,100.00
2018-11-12T01:02:44.968Z,100.00
2018-11-12T01:05:14.157Z,100.00
2018-11-12T01:07:43.178Z,100.00
2018-11-12T01:10:13.381Z,100.00
2018-11-12T01:12:42.998Z,100.00
2018-11-12T01:15:13.488Z,100.00
2018-11-12T01:17:42.767Z,100.00
2018-11-12T01:20:13.289Z,100.00
2018-11-12T01:22:42.366Z,100.00
2018-11-12T01:25:12.451Z,100.00
2018-11-12T01:27:42.162Z,100.00
2018-11-12T01:30:14.061Z,100.00
2018-11-12T01:32:43.354Z,100.00
2018-11-12T01:35:13.328Z,100.00
2018-11-12T01:37:42.317Z,100.00
2018-11-12T01:40:12.571Z,100.00
2018-11-12T01:42:41.890Z,100.00
2018-11-12T01:45:12.870Z,100.00
2018-11-12T01:47:42.108Z,100.00
2018-11-12T01:50:12.312Z,100.00
2018-11-12T01:52:42.011Z,100.00
2018-11-12T01:55:12.176Z,100.00
2018-11-12T01:57:41.189Z,100.00
2018-11-12T02:00:14.104Z,100.00
2018-11-12T02:02:44.055Z,100.00
2018-11-12T02:05:13.008Z,100.00
2018-11-12T02:07:41.943Z,100.00
2018-11-12T02:10:12.567Z,100.00
2018-11-12T02:12:41.854Z,100.00
2018-11-12T02:15:13.234Z,100.00
2018-11-12T02:17:42.843Z,100.00
2018-11-12T02:20:13.991Z,100.00
2018-11-12T02:22:44.010Z,100.00
2018-11-12T02:25:13.448Z,100.00
2018-11-12T02:27:42.429Z,100.00
2018-11-12T02:30:14.561Z,100.00
2018-11-12T02:32:43.483Z,100.00
2018-11-12T02:35:12.476Z,100.00
2018-11-12T02:37:41.497Z,100.00
2018-11-12T02:40:11.990Z,100.00
2018-11-12T02:42:41.428Z,100.00
2018-11-12T02:45:11.369Z,100.00
2018-11-12T02:47:41.058Z,100.00
2018-11-12T02:50:11.940Z,100.00
2018-11-12T02:52:41.083Z,100.00
2018-11-12T02:55:11.952Z,100.00
2018-11-12T02:57:41.843Z,100.00
2018-11-12T03:00:14.032Z,100.00
2018-11-12T03:02:43.709Z,100.00
2018-11-12T03:05:13.026Z,100.00
2018-11-12T03:07:42.238Z,100.00
2018-11-12T03:10:14.422Z,100.00
2018-11-12T03:12:43.493Z,100.00
2018-11-12T03:15:13.423Z,100.00
2018-11-12T03:17:42.986Z,100.00
2018-11-12T03:20:14.039Z,100.00
2018-11-12T03:22:42.960Z,100.00
2018-11-12T03:25:13.287Z,100.00
2018-11-12T03:27:43.105Z,100.00
2018-11-12T03:30:14.524Z,100.00
2018-11-12T03:32:44.176Z,100.00
2018-11-12T03:35:13.662Z,100.00
2018-11-12T03:37:43.925Z,100.00
2018-11-12T03:40:18.100Z,100.00
2018-11-12T03:42:47.642Z,100.00
2018-11-12T03:45:22.519Z,100.00
2018-11-12T03:47:51.540Z,100.00
2018-11-12T03:50:22.790Z,100.00
2018-11-12T03:52:51.734Z,100.00
2018-11-12T03:55:21.645Z,100.00
2018-11-12T03:57:50.611Z,100.00
2018-11-12T04:00:22.099Z,100.00
2018-11-12T04:02:51.026Z,100.00
2018-11-12T04:05:19.995Z,100.00
2018-11-12T04:07:48.947Z,100.00
2018-11-12T04:10:18.999Z,100.00
2018-11-12T04:12:47.931Z,100.00
2018-11-12T04:15:20.060Z,100.00
2018-11-12T04:17:49.022Z,100.00
2018-11-12T04:20:19.257Z,100.00
2018-11-12T04:23:03.415Z,100.00
2018-11-12T04:25:33.570Z,100.00
2018-11-12T04:28:02.659Z,100.00
2018-11-12T04:30:31.707Z,100.00
2018-11-12T04:33:00.679Z,100.00
2018-11-12T04:35:29.628Z,100.00
2018-11-12T04:37:58.776Z,100.00
2018-11-12T04:40:27.728Z,100.00
2018-11-12T04:42:56.715Z,100.00
2018-11-12T04:45:26.255Z,100.00
2018-11-12T04:47:55.598Z,100.00
2018-11-12T04:50:25.879Z,100.00
2018-11-12T04:52:55.136Z,100.00
2018-11-12T04:55:24.763Z,100.00
2018-11-12T04:57:53.616Z,100.00
2018-11-12T05:00:24.889Z,100.00
2018-11-12T05:02:53.820Z,100.00
2018-11-12T05:05:24.074Z,100.00
2018-11-12T05:07:53.148Z,100.00
2018-11-12T05:10:23.142Z,100.00
2018-11-12T05:12:52.711Z,100.00
2018-11-12T05:15:22.666Z,100.00
2018-11-12T05:17:51.591Z,100.00
2018-11-12T05:20:21.725Z,100.00
2018-11-12T05:22:50.690Z,100.00
2018-11-12T05:25:19.606Z,100.00
2018-11-12T05:27:48.563Z,100.00
2018-11-12T05:30:19.536Z,100.00
2018-11-12T05:32:48.550Z,100.00
2018-11-12T05:35:25.043Z,100.00
2018-11-12T05:37:54.100Z,100.00
2018-11-12T05:40:24.246Z,100.00
2018-11-12T05:42:53.288Z,100.00
2018-11-12T05:45:23.322Z,100.00
2018-11-12T05:47:52.260Z,100.00
2018-11-12T05:50:23.563Z,100.00
2018-11-12T05:52:53.996Z,100.00
2018-11-12T05:55:24.246Z,100.00
2018-11-12T05:57:53.195Z,100.00
2018-11-12T06:00:28.416Z,100.00
2018-11-12T06:02:57.372Z,100.00
2018-11-12T06:05:26.335Z,100.00
2018-11-12T06:07:55.281Z,100.00
2018-11-12T06:10:25.710Z,100.00
2018-11-12T06:12:54.675Z,100.00
2018-11-12T06:15:23.635Z,100.00
2018-11-12T06:17:53.004Z,100.00
2018-11-12T06:20:24.122Z,100.00
2018-11-12T06:22:53.173Z,100.00
2018-11-12T06:25:24.458Z,100.00
2018-11-12T06:27:53.609Z,100.00
2018-11-12T06:30:23.776Z,100.00
2018-11-12T06:32:52.782Z,100.00
2018-11-12T06:35:22.202Z,100.00
2018-11-12T06:37:52.018Z,100.00
2018-11-12T06:40:23.201Z,100.00
2018-11-12T06:42:52.519Z,100.00
2018-11-12T06:45:23.766Z,100.00
2018-11-12T06:47:53.517Z,100.00
2018-11-12T06:50:23.791Z,100.00
2018-11-12T06:52:52.818Z,100.00
2018-11-12T06:55:22.205Z,100.00
2018-11-12T06:57:51.419Z,100.00
2018-11-12T07:00:22.607Z,100.00
2018-11-12T07:02:52.114Z,100.00
2018-11-12T07:05:21.311Z,100.00
2018-11-12T07:07:50.251Z,100.00
2018-11-12T07:10:20.482Z,100.00
2018-11-12T07:12:50.231Z,99.70
2018-11-12T07:15:20.489Z,99.13
2018-11-12T07:17:49.404Z,98.78
2018-11-12T07:20:20.159Z,98.91
2018-11-12T07:22:49.511Z,97.24
2018-11-12T07:25:20.132Z,97.14
2018-11-12T07:27:49.054Z,96.62
2018-11-12T07:30:21.040Z,94.30
2018-11-12T07:32:50.862Z,94.43
2018-11-12T07:35:20.291Z,94.55
2018-11-12T07:37:50.522Z,92.31
2018-11-12T07:40:19.886Z,91.14
2018-11-12T07:42:48.927Z,89.24
2018-11-12T07:45:24.430Z,88.40
2018-11-12T07:47:54.324Z,86.79
2018-11-12T07:50:24.564Z,85.31
2018-11-12T07:52:53.480Z,85.78
2018-11-12T07:55:23.651Z,85.04
2018-11-12T07:57:53.742Z,84.89
2018-11-12T08:00:27.745Z,85.45
2018-11-12T08:03:01.844Z,84.44
2018-11-12T08:05:30.776Z,83.91
2018-11-12T08:07:59.710Z,84.11
2018-11-12T08:10:35.264Z,85.38
2018-11-12T08:13:04.254Z,83.81
2018-11-12T08:15:33.272Z,84.48
2018-11-12T08:18:02.263Z,83.24
2018-11-12T08:20:31.410Z,81.94
2018-11-12T08:23:00.417Z,82.08
2018-11-12T08:25:29.378Z,81.89
2018-11-12T08:27:58.383Z,80.22
2018-11-12T08:30:28.435Z,80.60
2018-11-12T08:32:58.829Z,79.33
2018-11-12T08:35:28.159Z,79.13
2018-11-12T08:37:57.390Z,78.60
2018-11-12T08:40:27.501Z,77.89
2018-11-12T08:42:56.459Z,77.96
2018-11-12T08:45:25.690Z,77.36
2018-11-12T08:47:55.514Z,77.27
2018-11-12T08:50:25.904Z,76.51
2018-11-12T08:52:55.959Z,75.63
2018-11-12T08:55:26.520Z,74.71
2018-11-12T08:57:57.907Z,73.00
2018-11-12T09:00:27.536Z,72.15
2018-11-12T09:02:56.519Z,70.84
2018-11-12T09:05:26.697Z,72.01
2018-11-12T09:07:57.267Z,70.71
2018-11-12T09:10:28.821Z,68.29
2018-11-12T09:12:57.855Z,67.57
2018-11-12T09:15:26.929Z,66.16
2018-11-12T09:17:55.886Z,64.31
2018-11-12T09:20:26.134Z,61.38
2018-11-12T09:22:55.446Z,60.26
2018-11-12T09:25:25.568Z,59.87
2018-11-12T09:27:54.507Z,59.93
2018-11-12T09:30:24.814Z,60.31
2018-11-12T09:32:53.804Z,59.02
2018-11-12T09:35:25.018Z,59.75
2018-11-12T09:37:54.700Z,60.81
2018-11-12T09:40:26.135Z,60.24
2018-11-12T09:42:55.183Z,59.40
2018-11-12T09:45:24.142Z,58.47
2018-11-12T09:47:53.741Z,58.35
2018-11-12T09:50:24.092Z,57.75
2018-11-12T09:52:54.373Z,57.94
2018-11-12T09:55:24.370Z,57.11
2018-11-12T09:57:55.072Z,57.30
2018-11-12T10:00:24.249Z,56.65
2018-11-12T10:02:54.013Z,57.44
2018-11-12T10:05:23.415Z,55.49
2018-11-12T10:07:55.909Z,54.15
2018-11-12T10:10:31.354Z,52.93
2018-11-12T10:12:58.426Z,52.97
2018-11-12T10:15:28.892Z,52.85
2018-11-12T10:17:57.996Z,53.05
2018-11-12T10:20:24.350Z,52.68
2018-11-12T10:22:53.326Z,52.15
2018-11-12T10:25:22.323Z,52.30
2018-11-12T10:27:51.440Z,52.34
2018-11-12T10:30:20.756Z,53.10
2018-11-12T10:32:49.705Z,52.73
2018-11-12T10:35:18.701Z,52.84
2018-11-12T10:37:47.696Z,52.69
2018-11-12T10:40:18.811Z,52.39
2018-11-12T10:42:47.766Z,52.88
2018-11-12T10:45:17.056Z,51.93
2018-11-12T10:47:46.998Z,51.17
2018-11-12T10:50:16.058Z,51.16
2018-11-12T10:52:45.096Z,50.95
2018-11-12T10:55:15.971Z,47.96
2018-11-12T10:57:45.403Z,48.11
2018-11-12T11:00:24.592Z,46.15
2018-11-12T11:02:59.436Z,45.12
2018-11-12T11:05:28.388Z,45.88
2018-11-12T11:07:57.365Z,45.06
2018-11-12T11:10:27.560Z,43.72
2018-11-12T11:12:57.626Z,46.04
2018-11-12T11:15:26.753Z,46.54
2018-11-12T11:17:55.708Z,46.49
2018-11-12T11:20:24.694Z,45.05
2018-11-12T11:22:53.642Z,47.19
2018-11-12T11:25:22.645Z,47.30
2018-11-12T11:27:51.603Z,49.53
2018-11-12T11:30:20.629Z,48.97
2018-11-12T11:32:49.635Z,50.04
2018-11-12T11:35:19.347Z,51.87
2018-11-12T11:37:48.310Z,53.22
2018-11-12T11:40:19.632Z,55.05
2018-11-12T11:42:48.551Z,56.68
2018-11-12T11:45:18.204Z,58.27
2018-11-12T11:47:48.095Z,58.96
2018-11-12T11:50:19.171Z,59.34
2018-11-12T11:52:48.186Z,61.45
2018-11-12T11:55:18.493Z,60.96
2018-11-12T11:57:47.896Z,62.21
2018-11-12T12:00:20.897Z,63.13
2018-11-12T12:02:50.969Z,62.83
2018-11-12T12:05:20.618Z,62.11
2018-11-12T12:07:50.150Z,63.19
2018-11-12T12:10:19.148Z,63.99
2018-11-12T12:12:48.912Z,64.87
2018-11-12T12:15:19.097Z,64.67
2018-11-12T12:17:48.048Z,64.79
2018-11-12T12:20:18.487Z,64.81
2018-11-12T12:22:47.448Z,65.43
2018-11-12T12:25:17.450Z,65.15
2018-11-12T12:27:46.870Z,64.69
2018-11-12T12:30:18.673Z,64.44
2018-11-12T12:32:48.341Z,64.23
2018-11-12T12:35:17.375Z,64.71
2018-11-12T12:37:46.883Z,64.66
2018-11-12T12:40:17.077Z,65.05
2018-11-12T12:42:46.048Z,64.59
2018-11-12T12:45:18.344Z,64.71
2018-11-12T12:47:47.763Z,63.56
2018-11-12T12:50:17.359Z,64.86
2018-11-12T12:52:46.290Z,64.92
2018-11-12T12:55:16.155Z,65.25
2018-11-12T12:57:45.622Z,65.50
2018-11-12T13:00:23.638Z,66.16
2018-11-12T13:02:52.624Z,65.93
2018-11-12T13:05:21.559Z,65.52
2018-11-12T13:07:50.535Z,64.93
2018-11-12T13:10:20.678Z,64.17
2018-11-12T13:12:49.681Z,64.72
2018-11-12T13:15:19.432Z,64.74
2018-11-12T13:17:48.950Z,65.01
2018-11-12T13:20:19.353Z,66.12
2018-11-12T13:22:48.776Z,66.48
2018-11-12T13:25:17.910Z,67.05
2018-11-12T13:27:47.565Z,68.28
2018-11-12T13:30:18.741Z,67.74
2018-11-12T13:32:48.047Z,67.76
2018-11-12T13:35:18.679Z,66.63
2018-11-12T13:37:47.650Z,66.88
2018-11-12T13:40:17.987Z,67.31
2018-11-12T13:42:48.522Z,68.39
2018-11-12T13:45:17.520Z,68.91
2018-11-12T13:47:46.912Z,69.41
2018-11-12T13:50:18.184Z,70.18
2018-11-12T13:52:47.506Z,69.99
2018-11-12T13:55:17.705Z,70.07
2018-11-12T13:57:47.063Z,70.42
2018-11-12T14:00:18.336Z,70.76
2018-11-12T14:02:48.044Z,70.00
2018-11-12T14:05:18.262Z,70.64
2018-11-12T14:07:47.602Z,71.10
2018-11-12T14:10:17.998Z,71.67
2018-11-12T14:12:47.204Z,72.23
2018-11-12T14:15:18.697Z,72.39
2018-11-12T14:17:48.175Z,72.93
2018-11-12T14:20:17.278Z,73.10
2018-11-12T14:22:46.275Z,73.41
2018-11-12T14:25:16.449Z,74.27
2018-11-12T14:27:46.555Z,74.62
2018-11-12T14:30:16.924Z,74.37
2018-11-12T14:32:45.891Z,75.09
2018-11-12T14:35:15.331Z,75.38
2018-11-12T14:37:45.320Z,75.42
2018-11-12T14:40:15.390Z,76.31
2018-11-12T14:42:44.462Z,76.14
2018-11-12T14:45:15.070Z,76.70
2018-11-12T14:47:44.654Z,76.79
2018-11-12T14:50:13.591Z,78.95
2018-11-12T14:52:42.576Z,79.92
2018-11-12T14:55:12.851Z,80.37
2018-11-12T14:57:41.857Z,80.86
2018-11-12T15:00:16.947Z,81.54
2018-11-12T15:02:46.030Z,81.38
2018-11-12T15:05:15.612Z,82.36
2018-11-12T15:07:44.573Z,82.38
2018-11-12T15:10:14.343Z,82.54
2018-11-12T15:12:43.853Z,84.01
2018-11-12T15:15:13.167Z,84.26
2018-11-12T15:17:42.316Z,85.42
2018-11-12T15:20:13.374Z,85.98
2018-11-12T15:22:42.351Z,86.85
2018-11-12T15:25:14.203Z,87.09
2018-11-12T15:27:44.138Z,86.72
2018-11-12T15:30:15.120Z,86.90
2018-11-12T15:32:44.672Z,86.68
2018-11-12T15:35:14.119Z,86.46
2018-11-12T15:37:43.791Z,87.69
2018-11-12T15:40:13.302Z,88.67
2018-11-12T15:42:42.542Z,88.45
2018-11-12T15:45:14.965Z,89.08
2018-11-12T15:47:44.780Z,89.10
2018-11-12T15:50:24.270Z,90.95
2018-11-12T15:52:53.394Z,90.86
2018-11-12T15:55:22.348Z,91.24
2018-11-12T15:57:51.399Z,91.20
2018-11-12T16:00:20.344Z,90.65
2018-11-12T16:02:49.326Z,90.87
2018-11-12T16:05:18.285Z,91.67
2018-11-12T16:07:47.206Z,92.84
2018-11-12T16:10:18.044Z,93.00
2018-11-12T16:12:47.178Z,92.36
2018-11-12T16:15:17.472Z,93.12
2018-11-12T16:17:46.434Z,93.69
2018-11-12T16:20:18.701Z,94.51
2018-11-12T16:22:48.394Z,95.33
2018-11-12T16:25:17.804Z,95.58
2018-11-12T16:27:46.815Z,95.55
2018-11-12T16:30:15.861Z,95.54
2018-11-12T16:32:45.613Z,95.58
2018-11-12T16:35:16.218Z,95.92
2018-11-12T16:37:45.899Z,96.81
2018-11-12T16:40:14.922Z,97.78
2018-11-12T16:42:44.821Z,98.05
2018-11-12T16:45:14.339Z,98.92
2018-11-12T16:47:43.410Z,99.24
2018-11-12T16:50:13.463Z,99.21
2018-11-12T16:52:42.494Z,99.82
2018-11-12T16:55:14.800Z,99.50
2018-11-12T16:57:43.876Z,99.35
2018-11-12T17:00:14.291Z,98.72
2018-11-12T17:02:43.696Z,98.37
2018-11-12T17:05:14.046Z,98.85
2018-11-12T17:07:43.009Z,99.34
2018-11-12T17:10:13.906Z,99.34
2018-11-12T17:12:43.559Z,99.33
2018-11-12T17:15:13.152Z,100.00
2018-11-12T17:17:42.160Z,100.00
2018-11-12T17:20:12.782Z,100.00
2018-11-12T17:22:41.698Z,100.00
2018-11-12T17:25:11.995Z,100.00
2018-11-12T17:27:41.027Z,100.00
2018-11-12T17:30:14.418Z,100.00
2018-11-12T17:32:44.020Z,100.00
2018-11-12T17:35:14.592Z,100.00
2018-11-12T17:37:43.665Z,100.00
2018-11-12T17:40:16.433Z,100.00
2018-11-12T17:42:46.290Z,100.00
2018-11-12T17:45:16.523Z,100.00
2018-11-12T17:47:46.680Z,100.00
2018-11-12T17:50:15.650Z,100.00
2018-11-12T17:52:44.857Z,100.00
2018-11-12T17:55:14.155Z,100.00
2018-11-12T17:57:43.128Z,100.00
2018-11-12T18:00:15.283Z,100.00
2018-11-12T18:02:44.204Z,100.00
2018-11-12T18:05:13.155Z,100.00
2018-11-12T18:07:42.831Z,100.00
2018-11-12T18:10:12.619Z,100.00
2018-11-12T18:12:41.612Z,100.00
2018-11-12T18:15:13.046Z,100.00
2018-11-12T18:17:42.071Z,100.00
2018-11-12T18:20:14.454Z,100.00
2018-11-12T18:22:43.393Z,100.00
2018-11-12T18:25:12.684Z,100.00
2018-11-12T18:27:41.667Z,100.00
2018-11-12T18:30:13.191Z,100.00
2018-11-12T18:32:42.348Z,100.00
2018-11-12T18:35:11.421Z,100.00
2018-11-12T18:37:40.448Z,100.00
2018-11-12T18:40:11.214Z,100.00
2018-11-12T18:42:40.223Z,100.00
2018-11-12T18:45:15.086Z,100.00
2018-11-12T18:47:44.435Z,100.00
2018-11-12T18:50:15.950Z,100.00
2018-11-12T18:52:45.394Z,100.00
2018-11-12T18:55:14.325Z,100.00
2018-11-12T18:57:44.127Z,100.00
2018-11-12T19:00:14.363Z,100.00
2018-11-12T19:02:43.432Z,100.00
2018-11-12T19:05:17.893Z,100.00
2018-11-12T19:07:47.970Z,100.00
2018-11-12T19:10:18.360Z,100.00
2018-11-12T19:12:47.906Z,100.00
2018-11-12T19:15:18.203Z,100.00
2018-11-12T19:17:48.817Z,100.00
2018-11-12T19:20:18.696Z,100.00
2018-11-12T19:22:47.687Z,100.00
2018-11-12T19:25:16.721Z,100.00
2018-11-12T19:27:45.710Z,100.00
2018-11-12T19:30:17.817Z,100.00
2018-11-12T19:32:47.068Z,100.00
2018-11-12T19:35:17.414Z,100.00
2018-11-12T19:37:47.258Z,100.00
2018-11-12T19:40:19.591Z,100.00
2018-11-12T19:42:49.933Z,100.00
2018-11-12T19:45:18.863Z,100.00
2018-11-12T19:47:49.154Z,100.00
2018-11-12T19:50:20.456Z,100.00
2018-11-12T19:52:52.346Z,100.00
2018-11-12T19:55:21.323Z,100.00
2018-11-12T19:57:50.322Z,100.00
2018-11-12T20:00:21.876Z,100.00
2018-11-12T20:02:52.006Z,100.00
2018-11-12T20:05:20.970Z,100.00
2018-11-12T20:07:49.954Z,100.00
2018-11-12T20:10:20.179Z,100.00
2018-11-12T20:12:49.165Z,100.00
2018-11-12T20:15:20.377Z,100.00
2018-11-12T20:17:50.116Z,100.00
2018-11-12T20:20:22.459Z,100.00
2018-11-12T20:22:51.729Z,100.00
2018-11-12T20:25:21.033Z,100.00
2018-11-12T20:27:50.880Z,100.00
2018-11-12T20:30:28.047Z,100.00
2018-11-12T20:32:57.110Z,100.00
2018-11-12T20:35:26.063Z,100.00
2018-11-12T20:37:55.086Z,100.00
2018-11-12T20:40:24.019Z,100.00
2018-11-12T20:42:53.002Z,100.00
2018-11-12T20:45:22.817Z,100.00
2018-11-12T20:47:53.397Z,100.00
2018-11-12T20:50:22.473Z,100.00
2018-11-12T20:52:51.465Z,100.00
2018-11-12T20:55:20.491Z,100.00
2018-11-12T20:57:49.461Z,100.00
2018-11-12T21:00:21.128Z,100.00
2018-11-12T21:02:51.294Z,100.00
2018-11-12T21:05:22.171Z,100.00
2018-11-12T21:07:51.150Z,100.00
2018-11-12T21:10:20.527Z,100.00
2018-11-12T21:12:49.879Z,100.00
2018-11-12T21:15:19.702Z,100.00
2018-11-12T21:17:48.642Z,100.00
2018-11-12T21:20:19.106Z,100.00
2018-11-12T21:22:48.084Z,100.00
2018-11-12T21:25:18.414Z,100.00
2018-11-12T21:27:47.431Z,100.00
2018-11-12T21:30:18.851Z,100.00
2018-11-12T21:32:48.168Z,100.00
2018-11-12T21:35:17.156Z,100.00
2018-11-12T21:37:46.431Z,100.00
2018-11-12T21:40:18.826Z,100.00
2018-11-12T21:42:47.822Z,100.00
2018-11-12T21:45:19.559Z,100.00
2018-11-12T21:47:48.502Z,100.00
2018-11-12T21:50:18.733Z,100.00
2018-11-12T21:52:47.666Z,100.00
2018-11-12T21:55:16.633Z,100.00
2018-11-12T21:57:45.997Z,100.00
2018-11-12T22:00:17.720Z,100.00
2018-11-12T22:02:47.987Z,100.00
2018-11-12T22:05:16.993Z,100.00
2018-11-12T22:07:45.952Z,100.00
2018-11-12T22:10:15.748Z,100.00
2018-11-12T22:12:45.967Z,100.00
2018-11-12T22:15:14.907Z,100.00
2018-11-12T22:17:44.765Z,100.00
2018-11-12T22:20:15.073Z,100.00
2018-11-12T22:22:44.495Z,100.00
2018-11-12T22:25:15.722Z,100.00
2018-11-12T22:27:45.283Z,100.00
2018-11-12T22:30:22.797Z,100.00
2018-11-12T22:32:52.974Z,100.00
2018-11-12T22:35:21.930Z,100.00
2018-11-12T22:37:51.035Z,100.00
2018-11-12T22:40:20.674Z,100.00
2018-11-12T22:42:50.434Z,100.00
2018-11-12T22:45:21.710Z,100.00
2018-11-12T22:47:51.173Z,100.00
2018-11-12T22:50:20.171Z,100.00
2018-11-12T22:52:49.102Z,100.00
2018-11-12T22:55:18.877Z,100.00
2018-11-12T22:57:47.935Z,100.00
2018-11-12T23:00:23.563Z,100.00
2018-11-12T23:02:52.798Z,100.00
2018-11-12T23:05:22.224Z,100.00
2018-11-12T23:07:51.746Z,100.00
2018-11-12T23:10:21.117Z,100.00
2018-11-12T23:12:50.072Z,100.00
2018-11-12T23:15:19.603Z,100.00
2018-11-12T23:17:48.627Z,100.00
2018-11-12T23:20:20.174Z,100.00
2018-11-12T23:22:49.668Z,100.00
2018-11-12T23:25:18.662Z,100.00
2018-11-12T23:27:48.384Z,100.00
2018-11-12T23:30:18.497Z,100.00
2018-11-12T23:32:47.431Z,100.00
2018-11-12T23:35:17.844Z,100.00
2018-11-12T23:37:47.435Z,100.00
2018-11-12T23:40:16.554Z,100.00
2018-11-12T23:42:46.086Z,100.00
2018-11-12T23:45:15.123Z,100.00
2018-11-12T23:47:44.101Z,100.00
2018-11-12T23:50:21.454Z,100.00
2018-11-12T23:52:51.250Z,100.00
2018-11-12T23:55:20.663Z,100.00
2018-11-12T23:57:50.189Z,100.00
